• Join FlightAware (Why Join?)
  • Login
  • US Flag 
11:31AM EDT


 

Airport Tracker/Info


-or-


 

Live Flight TrackerFlight Track Log ✈ EJA324 ✈ 12-May-2013 ✈ KSAV - KFRG

Flight Track Log - Related Links

Times and Time Zones

All times are in EDT time to prevent confusion due to time zone crossing. See the EJA324 flight status page for this flight to view local times or setup timezone preferences in your user account.

Time Position Orientation Groundspeed Altitude Reporting Facility
EDT Latitude Longitude Course Direction KTS MPH feet Rate Location/Type
02:18PM 32.1889 -81.2111 53° Northeast 257 296 4,200  Level Jacksonville Center
02:19PM 32.2256 -81.1489 55° Northeast 305 351 8,700 3,660 Climbing Jacksonville Center
02:20PM 32.2828 -81.0544 54° Northeast 321 369 11,600 3,060 Climbing Jacksonville Center
02:21PM 32.3397 -80.9647 53° Northeast 359 413 14,900 3,300 Climbing Jacksonville Center
02:22PM 32.4217 -80.8622 47° Northeast 379 436 18,200 2,520 Climbing Jacksonville Center
02:23PM 32.5932 -80.4793 53° Northeast  Level FlightAware Approximate
02:23PM 32.4997 -80.7767 43° Northeast 389 448 20,000  Level Jacksonville Center
02:24PM 32.5919 -80.6783 42° Northeast 419 482 22,300 2,160 Climbing Jacksonville Center
02:25PM 32.6861 -80.5775 42° Northeast 437 503 24,400 2,160 Climbing Jacksonville Center
02:26PM 32.7842 -80.4711 42° Northeast 455 524 26,700 1,920 Climbing Jacksonville Center
02:27PM 32.8844 -80.3619 42° Northeast 466 536 28,300 1,560 Climbing Jacksonville Center
02:28PM 32.9989 -80.2400 42° Northeast 487 560 29,900 1,740 Climbing Jacksonville Center
02:29PM 33.1131 -80.1175 42° Northeast 514 592 31,800 1,860 Climbing Jacksonville Center
02:30PM 33.2128 -80.0075 43° Northeast 509 586 33,700 1,920 Climbing Jacksonville Center
02:31PM 33.3167 -79.8925 43° Northeast 509 586 35,700 1,980 Climbing Jacksonville Center
02:32PM 33.4161 -79.7819 43° Northeast 502 578 37,700 1,560 Climbing Jacksonville Center
02:33PM 33.5158 -79.6739 42° Northeast 492 566 38,900 1,080 Climbing Jacksonville Center
02:34PM 33.6150 -79.5631 43° Northeast 487 560 39,900 900 Climbing Jacksonville Center
02:35PM 33.7144 -79.4519 43° Northeast 487 560 40,800 540 Climbing Jacksonville Center
02:36PM 33.8117 -79.3458 42° Northeast 472 543 41,000 60 Climbing Jacksonville Center
02:37PM 33.9208 -79.2261 42° Northeast 487 560 41,000  Level Jacksonville Center
02:38PM 34.0300 -79.1039 43° Northeast 507 583 41,000  Level Jacksonville Center
02:40PM 34.2483 -78.8581 43° Northeast 525 604 41,000  Level Washington Center
02:41PM 34.3581 -78.7342 43° Northeast 530 610 41,000  Level Washington Center
02:42PM 34.4656 -78.6122 43° Northeast 530 610 41,000  Level Washington Center
02:43PM 34.5728 -78.4875 44° Northeast 530 610 41,000  Level Washington Center
02:44PM 34.6800 -78.3703 42° Northeast 530 610 41,000  Level Washington Center
02:45PM 34.7742 -78.2622 43° Northeast 525 604 41,000  Level Washington Center
02:46PM 34.8794 -78.1314 46° Northeast 518 596 41,000  Level Washington Center
02:47PM 34.9819 -78.0103 44° Northeast 513 590 41,000  Level Washington Center
02:48PM 35.0886 -77.8892 43° Northeast 513 590 41,000  Level Washington Center
02:49PM 35.1911 -77.7675 44° Northeast 513 590 41,000  Level Washington Center
02:50PM 35.2933 -77.6483 44° Northeast 513 590 41,000  Level Washington Center
02:51PM 35.4017 -77.5311 41° Northeast 513 590 41,000  Level Washington Center
02:52PM 35.5181 -77.4294 35° Northeast 513 590 41,000  Level Washington Center
02:53PM 35.6322 -77.3297 35° Northeast 508 585 41,000  Level Washington Center
02:54PM 35.7464 -77.2300 35° Northeast 508 585 41,000  Level Washington Center
02:55PM 35.8625 -77.1272 36° Northeast 502 578 41,000  Level Washington Center
02:56PM 35.9764 -77.0267 36° Northeast 502 578 41,000  Level Washington Center
02:57PM 36.0903 -76.9261 35° Northeast 502 578 41,000  Level Washington Center
02:58PM 36.2019 -76.8225 37° Northeast 502 578 41,000  Level Washington Center
02:59PM 36.3197 -76.7186 35° Northeast 502 578 41,000  Level Washington Center
03:00PM 36.4356 -76.6144 36° Northeast 502 578 41,000  Level Washington Center
03:01PM 36.5511 -76.5125 35° Northeast 502 578 41,000  Level Washington Center
03:02PM 36.6664 -76.4075 36° Northeast 507 583 41,000  Level Washington Center
03:03PM 36.7925 -76.2869 37° Northeast 507 583 41,000  Level Washington Center
03:04PM 36.9119 -76.1894 33° Northeast 512 589 41,000  Level Washington Center
03:05PM 37.0478 -76.1228 21° North 512 589 41,000  Level Washington Center
03:06PM 37.1775 -76.0533 23° Northeast 502 578 41,000  Level Washington Center
03:07PM 37.3069 -75.9836 23° Northeast 497 572 41,000  Level Washington Center
03:08PM 37.4386 -75.9136 23° Northeast 502 578 41,000  Level Washington Center
03:09PM 37.5681 -75.8381 25° Northeast 502 578 41,000  Level Washington Center
03:10PM 37.6933 -75.7467 30° Northeast 502 578 41,000  Level Washington Center
03:11PM 37.8164 -75.6522 31° Northeast 513 590 41,000  Level Washington Center
03:12PM 37.9394 -75.5575 31° Northeast 513 590 41,000 -120 Level Washington Center
03:13PM 38.0647 -75.4653 30° Northeast 513 590 40,800 -600 Descending Washington Center
03:14PM 38.1981 -75.3831 26° Northeast 513 590 39,900 -960 Descending Washington Center
03:15PM 38.3269 -75.3006 27° Northeast 513 590 38,900 -1,020 Descending Washington Center
03:16PM 38.4539 -75.2153 28° Northeast 513 590 37,900 -1,020 Descending Washington Center
03:17PM 38.5808 -75.1294 28° Northeast 513 590 36,900 -1,020 Descending Washington Center
03:18PM 38.7097 -75.0517 25° Northeast 508 585 35,900 -1,080 Descending Washington Center
03:19PM 38.8386 -74.9706 26° Northeast 508 585 34,800 -1,800 Descending Washington Center
03:20PM 38.9633 -74.8894 27° Northeast 508 585 32,300 -2,520 Descending Washington Center
03:21PM 39.0919 -74.7972 29° Northeast 503 579 29,800 -2,520 Descending Washington Center
03:23PM 39.3619 -74.5142 39° Northeast 516 594 23,700 -2,460 Descending New York Center
03:24PM 39.4572 -74.4089 40° Northeast 498 573 21,400 -2,340 Descending New York Center
03:25PM 39.5606 -74.2983 40° Northeast 488 562 19,100 -1,740 Descending New York Center
03:26PM 39.6617 -74.1903 39° Northeast 474 545 18,000 -1,320 Descending New York Center
03:27PM 39.7564 -74.0842 41° Northeast 458 527 16,500 -1,920 Descending New York Center
03:28PM 39.8594 -73.9808 38° Northeast 429 494 14,100 -2,220 Descending New York Center
03:29PM 39.9572 -73.9067 30° Northeast 406 467 12,100 -1,620 Descending New York Center
03:30PM 40.0358 -73.8506 29° Northeast 374 430 11,000 -1,320 Descending New York Center
03:31PM 40.1153 -73.7672 39° Northeast 337 388 9,500 -1,680 Descending New York Center
03:32PM 40.1500 -73.7167 48° Northeast 325 374 8,400 -1,920 Descending New York TRACON
03:33PM 40.2167 -73.6500 37° Northeast 307 353 6,500 -1,620 Descending New York TRACON
03:33PM 40.2500 -73.6236 31° Northeast 307 353 6,100 -480 Descending New York Center
03:34PM 40.3078 -73.5608 40° Northeast 297 342 5,900 -660 Descending New York Center
03:35PM 40.3761 -73.4900 38° Northeast 297 342 4,800 -1,080 Descending New York Center
03:36PM 40.4000 -73.4333 61° Northeast 291 335 4,200 -1,440 Descending New York TRACON
03:37PM 40.4167 -73.3333 78° East 289 333 2,600 -1,140 Descending New York TRACON
03:38PM 40.4667 -73.2667 45° Northeast 287 330 2,000 -300 Descending New York TRACON
03:39PM 40.5333 -73.2500 11° North 267 307 2,000  Level New York TRACON
03:40PM 40.6000 -73.2833 339° North 249 287 2,000  Level New York TRACON
03:41PM 40.6500 -73.3167 333° Northwest 193 222 2,000 -300 Level New York TRACON
03:42PM 40.6833 -73.3500 323° Northwest 113 130 1,500 -600 Descending New York TRACON
03:43PM 40.7000 -73.3667 323° Northwest 104 120 900 -660 Descending New York TRACON
03:44PM 40.7167 -73.4000 303° West 92 106 300 -600 Descending New York TRACON
03:46PM 40.7288 -73.4134 323° Northwest  Level Estimated
03:53PM 40.7288 -73.4134 323° Northwest  Level Estimated